createdAt,value
2022-10-19T00:00:00.738Z,17.10
2022-10-19T00:02:29.066Z,29.15
2022-10-19T00:04:56.845Z,29.60
2022-10-19T00:07:24.504Z,38.38
2022-10-19T00:09:52.409Z,19.33
2022-10-19T00:12:20.088Z,29.08
2022-10-19T00:14:47.793Z,26.52
2022-10-19T00:17:16.925Z,21.05
2022-10-19T00:19:44.580Z,18.23
2022-10-19T00:22:14.008Z,19.67
2022-10-19T00:24:42.095Z,18.38
2022-10-19T00:27:09.929Z,32.63
2022-10-19T00:29:37.614Z,36.78
2022-10-19T00:32:05.525Z,39.72
2022-10-19T00:34:34.595Z,46.35
2022-10-19T00:37:02.362Z,51.95
2022-10-19T00:39:30.116Z,33.65
2022-10-19T00:41:57.798Z,28.00
2022-10-19T00:45:11.295Z,30.67
2022-10-19T00:47:39.586Z,22.35
2022-10-19T00:50:10.187Z,32.90
2022-10-19T00:52:38.219Z,21.38
2022-10-19T00:55:08.303Z,31.95
2022-10-19T00:57:36.697Z,20.60
2022-10-19T01:00:07.466Z,22.20
2022-10-19T01:02:35.764Z,20.65
2022-10-19T01:05:05.112Z,11.75
2022-10-19T01:07:34.542Z,11.80
2022-10-19T01:10:03.017Z,16.02
2022-10-19T01:12:47.652Z,16.42
2022-10-19T01:15:24.657Z,17.25
2022-10-19T01:18:04.577Z,13.63
2022-10-19T01:20:52.634Z,18.73
2022-10-19T01:23:41.227Z,17.15
2022-10-19T01:26:24.944Z,16.17
2022-10-19T01:29:09.504Z,15.88
2022-10-19T01:31:45.841Z,17.50
2022-10-19T01:34:19.583Z,14.68
2022-10-19T01:36:58.080Z,16.00
2022-10-19T01:39:29.991Z,13.65
2022-10-19T01:42:04.033Z,16.02
2022-10-19T01:44:40.840Z,17.13
2022-10-19T01:47:16.036Z,18.73
2022-10-19T01:49:49.385Z,15.43
2022-10-19T01:52:20.060Z,13.77
2022-10-19T01:54:51.180Z,16.67
2022-10-19T01:57:24.828Z,15.85
2022-10-19T01:59:54.873Z,12.90
2022-10-19T02:02:26.715Z,21.45
2022-10-19T02:04:56.071Z,21.35
2022-10-19T02:07:25.772Z,18.02
2022-10-19T02:09:53.509Z,20.25
2022-10-19T02:12:22.411Z,24.25
2022-10-19T02:14:57.513Z,10.68
2022-10-19T02:17:31.695Z,15.63
2022-10-19T02:20:00.437Z,16.02
2022-10-19T02:22:28.993Z,17.27
2022-10-19T02:24:56.691Z,15.73
2022-10-19T02:27:24.733Z,28.83
2022-10-19T02:29:53.189Z,13.95
2022-10-19T02:32:21.012Z,25.55
2022-10-19T02:34:50.220Z,31.55
2022-10-19T02:37:20.951Z,20.15
2022-10-19T02:39:51.210Z,32.80
2022-10-19T02:42:23.589Z,30.33
2022-10-19T02:44:57.947Z,19.52
2022-10-19T02:47:29.337Z,14.80
2022-10-19T02:49:58.472Z,16.27
2022-10-19T02:52:26.253Z,26.10
2022-10-19T02:54:53.926Z,25.35
2022-10-19T02:57:23.124Z,25.45
2022-10-19T02:59:50.975Z,21.80
2022-10-19T03:02:19.771Z,31.33
2022-10-19T03:07:22.598Z,33.50
2022-10-19T03:09:50.384Z,24.30
2022-10-19T03:12:18.181Z,45.95
2022-10-19T03:14:45.984Z,23.90
2022-10-19T03:17:13.941Z,20.17
2022-10-19T03:19:41.752Z,22.98
2022-10-19T03:22:09.486Z,27.38
2022-10-19T03:24:38.581Z,36.88
2022-10-19T03:27:06.365Z,27.65
2022-10-19T03:29:34.157Z,25.60
2022-10-19T03:32:01.841Z,39.58
2022-10-19T03:34:29.954Z,32.30
2022-10-19T03:36:59.098Z,23.75
2022-10-19T03:39:26.867Z,19.80
2022-10-19T03:41:55.936Z,18.90
2022-10-19T03:44:23.678Z,25.33
2022-10-19T03:46:51.411Z,18.45
2022-10-19T03:49:19.187Z,23.95
2022-10-19T03:51:47.419Z,23.98
2022-10-19T03:54:16.826Z,20.13
2022-10-19T03:56:45.430Z,25.48
2022-10-19T03:59:16.200Z,63.47
2022-10-19T04:01:46.351Z,40.30
2022-10-19T04:04:16.124Z,37.00
2022-10-19T04:06:46.421Z,37.92
2022-10-19T04:09:15.619Z,22.13
2022-10-19T04:11:43.546Z,43.75
2022-10-19T04:14:18.932Z,29.42
2022-10-19T04:16:56.165Z,22.20
2022-10-19T04:19:23.977Z,23.48
2022-10-19T04:21:51.688Z,31.52
2022-10-19T04:24:20.247Z,27.13
2022-10-19T04:26:49.976Z,20.65
2022-10-19T04:29:19.330Z,26.48
2022-10-19T04:31:49.494Z,27.67
2022-10-19T04:34:19.135Z,22.75
2022-10-19T04:36:47.061Z,19.45
2022-10-19T04:39:15.072Z,28.20
2022-10-19T04:41:42.776Z,24.90
2022-10-19T04:44:10.855Z,19.88
2022-10-19T04:46:38.775Z,21.15
2022-10-19T04:49:06.964Z,23.33
2022-10-19T04:51:36.141Z,37.50
2022-10-19T04:54:04.454Z,47.90
2022-10-19T04:56:32.873Z,21.25
2022-10-19T04:59:01.334Z,28.60
2022-10-19T05:01:30.616Z,26.23
2022-10-19T05:04:00.277Z,21.52
2022-10-19T05:06:28.823Z,66.35
2022-10-19T05:08:58.697Z,32.35
2022-10-19T05:11:27.044Z,63.13
2022-10-19T05:13:54.926Z,27.95
2022-10-19T05:16:24.790Z,28.02
2022-10-19T05:18:55.984Z,35.40
2022-10-19T05:21:23.985Z,30.10
2022-10-19T05:23:53.409Z,21.35
2022-10-19T05:26:24.807Z,24.40
2022-10-19T05:28:56.344Z,32.10
2022-10-19T05:31:25.890Z,25.05
2022-10-19T05:33:53.695Z,22.05
2022-10-19T05:36:25.436Z,25.75
2022-10-19T05:38:54.605Z,23.58
2022-10-19T05:41:25.169Z,23.67
2022-10-19T05:43:54.767Z,22.73
2022-10-19T05:46:22.891Z,26.73
2022-10-19T05:48:50.588Z,27.35
2022-10-19T05:51:22.125Z,26.33
2022-10-19T05:53:50.750Z,26.58
2022-10-19T05:56:20.875Z,26.05
2022-10-19T05:58:50.838Z,26.20
2022-10-19T06:01:20.317Z,24.15
2022-10-19T06:03:52.298Z,30.88
2022-10-19T06:06:20.408Z,27.23
2022-10-19T06:08:48.973Z,28.33
2022-10-19T06:11:19.400Z,27.70
2022-10-19T06:13:50.287Z,24.42
2022-10-19T06:16:20.564Z,26.15
2022-10-19T06:18:48.774Z,26.75
2022-10-19T06:21:17.952Z,27.77
2022-10-19T06:23:46.393Z,24.80
2022-10-19T06:26:15.354Z,28.25
2022-10-19T06:28:45.207Z,25.92
2022-10-19T06:31:14.673Z,23.48
2022-10-19T06:33:48.544Z,22.15
2022-10-19T06:36:20.314Z,23.13
2022-10-19T06:38:48.844Z,21.73
2022-10-19T06:41:16.586Z,25.38
2022-10-19T06:43:44.489Z,24.20
2022-10-19T06:46:15.506Z,20.75
2022-10-19T06:48:44.589Z,23.75
2022-10-19T06:51:13.545Z,23.40
2022-10-19T06:53:41.216Z,22.17
2022-10-19T06:56:09.596Z,22.08
2022-10-19T06:58:37.721Z,22.83
2022-10-19T07:01:07.499Z,23.92
2022-10-19T07:03:36.050Z,26.00
2022-10-19T07:06:07.486Z,19.15
2022-10-19T07:08:36.787Z,26.23
2022-10-19T07:11:06.582Z,22.35
2022-10-19T07:13:34.728Z,17.20
2022-10-19T07:16:05.577Z,22.27
2022-10-19T07:18:34.416Z,15.63
2022-10-19T07:21:06.061Z,19.98
2022-10-19T07:23:36.067Z,20.40
2022-10-19T07:26:09.652Z,19.80
2022-10-19T07:28:37.393Z,19.20
2022-10-19T07:31:09.660Z,11.15
2022-10-19T07:33:37.757Z,16.60
2022-10-19T07:36:08.952Z,13.35
2022-10-19T07:38:37.621Z,12.00
2022-10-19T07:41:07.112Z,12.32
2022-10-19T07:43:35.441Z,10.18
2022-10-19T07:46:05.441Z,9.95
2022-10-19T07:48:33.544Z,13.23
2022-10-19T07:51:03.253Z,10.80
2022-10-19T07:53:32.643Z,9.15
2022-10-19T07:56:06.949Z,8.57
2022-10-19T07:58:36.322Z,9.73
2022-10-19T08:01:05.438Z,9.93
2022-10-19T08:06:22.443Z,7.78
2022-10-19T08:08:52.440Z,10.35
2022-10-19T08:11:22.762Z,9.85
2022-10-19T08:13:51.063Z,6.85
2022-10-19T08:16:24.963Z,8.18
2022-10-19T08:18:53.996Z,10.65
2022-10-19T08:21:21.700Z,8.98
2022-10-19T08:23:50.724Z,9.65
2022-10-19T08:26:18.460Z,8.35
2022-10-19T08:28:46.278Z,12.80
2022-10-19T08:31:16.169Z,11.55
2022-10-19T08:33:44.482Z,10.48
2022-10-19T08:36:14.425Z,8.55
2022-10-19T08:38:44.654Z,8.15
2022-10-19T08:41:29.963Z,8.63
2022-10-19T08:44:09.348Z,10.48
2022-10-19T08:46:49.178Z,8.20
2022-10-19T08:49:20.036Z,8.07
2022-10-19T08:51:51.477Z,7.07
2022-10-19T08:54:19.494Z,7.90
2022-10-19T08:57:06.315Z,7.05
2022-10-19T08:59:40.137Z,8.48
2022-10-19T09:02:16.932Z,9.93
2022-10-19T09:04:49.867Z,10.70
2022-10-19T09:07:28.134Z,7.72
2022-10-19T09:09:59.479Z,8.68
2022-10-19T09:12:38.627Z,9.18
2022-10-19T09:15:12.398Z,8.70
2022-10-19T09:17:40.086Z,10.05
2022-10-19T09:20:17.404Z,10.88
2022-10-19T09:22:45.968Z,10.30
2022-10-19T09:25:20.455Z,8.45
2022-10-19T09:27:54.087Z,11.23
2022-10-19T09:30:24.226Z,10.15
2022-10-19T09:32:59.763Z,6.95
2022-10-19T09:35:31.611Z,9.73
2022-10-19T09:38:00.365Z,7.70
2022-10-19T09:40:29.969Z,9.43
2022-10-19T09:43:02.951Z,9.13
2022-10-19T09:45:37.141Z,9.27
2022-10-19T09:48:17.746Z,7.90
2022-10-19T09:50:47.106Z,8.88
2022-10-19T09:53:20.457Z,8.32
2022-10-19T09:55:52.272Z,7.40
2022-10-19T09:58:21.667Z,8.32
2022-10-19T10:00:51.500Z,6.30
2022-10-19T10:03:30.981Z,8.20
2022-10-19T10:06:03.389Z,6.30
2022-10-19T10:08:34.204Z,8.75
2022-10-19T10:11:09.184Z,10.32
2022-10-19T10:13:44.021Z,8.77
2022-10-19T10:16:18.541Z,7.30
2022-10-19T10:18:55.330Z,8.85
2022-10-19T10:21:26.385Z,6.35
2022-10-19T10:24:02.940Z,10.15
2022-10-19T10:26:30.796Z,6.80
2022-10-19T10:29:01.443Z,8.95
2022-10-19T10:31:31.504Z,10.77
2022-10-19T10:34:12.170Z,8.77
2022-10-19T10:36:52.261Z,8.45
2022-10-19T10:39:20.225Z,6.07
2022-10-19T10:41:50.075Z,9.63
2022-10-19T10:44:23.111Z,9.55
2022-10-19T10:46:56.757Z,6.40
2022-10-19T10:49:26.418Z,7.93
2022-10-19T10:51:56.528Z,8.65
2022-10-19T10:54:25.666Z,7.20
2022-10-19T10:57:06.831Z,8.27
2022-10-19T10:59:44.712Z,9.75
2022-10-19T11:02:27.274Z,9.65
2022-10-19T11:05:00.195Z,6.30
2022-10-19T11:07:31.031Z,7.05
2022-10-19T11:10:02.516Z,6.07
2022-10-19T11:12:36.992Z,7.20
2022-10-19T11:15:16.221Z,6.00
2022-10-19T11:17:56.617Z,5.47
2022-10-19T11:20:30.817Z,5.10
2022-10-19T11:23:09.100Z,8.27
2022-10-19T11:25:50.712Z,7.35
2022-10-19T11:28:29.964Z,8.40
2022-10-19T11:31:07.847Z,6.05
2022-10-19T11:33:47.295Z,9.40
2022-10-19T11:36:30.866Z,7.10
2022-10-19T11:39:13.881Z,9.73
2022-10-19T11:41:52.107Z,9.52
2022-10-19T11:44:38.716Z,7.82
2022-10-19T11:47:29.353Z,7.57
2022-10-19T11:52:51.181Z,8.98
2022-10-19T11:55:31.428Z,4.68
2022-10-19T11:58:10.455Z,7.28
2022-10-19T12:00:50.023Z,7.13
2022-10-19T12:03:48.375Z,6.72
2022-10-19T12:06:22.919Z,7.70
2022-10-19T12:09:07.616Z,9.18
2022-10-19T12:14:18.622Z,6.35
2022-10-19T12:16:49.802Z,6.43
2022-10-19T12:19:23.447Z,9.95
2022-10-19T12:21:54.166Z,7.30
2022-10-19T12:24:24.956Z,7.95
2022-10-19T12:26:55.442Z,10.93
2022-10-19T12:29:26.738Z,8.23
2022-10-19T12:31:56.384Z,8.35
2022-10-19T12:34:37.301Z,6.47
2022-10-19T12:37:11.843Z,8.80
2022-10-19T12:39:44.353Z,9.00
2022-10-19T12:42:22.776Z,6.15
2022-10-19T12:45:11.885Z,6.05
2022-10-19T12:47:39.621Z,7.82
2022-10-19T12:50:09.250Z,7.63
2022-10-19T12:52:41.093Z,9.32
2022-10-19T12:55:26.617Z,8.95
2022-10-19T12:58:01.180Z,10.90
2022-10-19T13:00:31.930Z,7.45
2022-10-19T13:03:03.217Z,7.05
2022-10-19T13:05:33.834Z,5.90
2022-10-19T13:08:03.486Z,7.47
2022-10-19T13:10:33.415Z,7.65
2022-10-19T13:13:03.077Z,7.70
2022-10-19T13:15:58.199Z,6.45
2022-10-19T13:19:05.993Z,7.80
2022-10-19T13:22:12.912Z,5.53
2022-10-19T13:24:42.207Z,7.22
2022-10-19T13:27:37.616Z,11.77
2022-10-19T13:30:07.243Z,7.35
2022-10-19T13:32:44.296Z,7.35
2022-10-19T13:35:32.488Z,7.72
2022-10-19T13:38:27.369Z,10.77
2022-10-19T13:41:06.058Z,8.90
2022-10-19T13:43:38.431Z,8.15
2022-10-19T13:46:19.427Z,7.25
2022-10-19T13:49:10.445Z,8.70
2022-10-19T13:51:47.757Z,8.13
2022-10-19T13:54:32.402Z,6.95
2022-10-19T13:57:15.185Z,6.55
2022-10-19T14:00:01.561Z,10.68
2022-10-19T14:02:55.188Z,6.60
2022-10-19T14:05:44.943Z,7.88
2022-10-19T14:08:29.479Z,8.32
2022-10-19T14:11:01.661Z,7.90
2022-10-19T14:13:31.375Z,9.43
2022-10-19T14:16:02.840Z,6.97
2022-10-19T14:18:33.120Z,7.05
2022-10-19T14:21:02.943Z,5.80
2022-10-19T14:23:33.059Z,7.57
2022-10-19T14:26:04.817Z,4.47
2022-10-19T14:28:34.775Z,6.13
2022-10-19T14:31:05.794Z,6.07
2022-10-19T14:33:36.417Z,5.47
2022-10-19T14:36:04.240Z,7.40
2022-10-19T14:38:36.230Z,7.90
2022-10-19T14:41:05.693Z,12.05
2022-10-19T14:43:35.770Z,7.70
2022-10-19T14:46:15.245Z,6.50
2022-10-19T14:48:46.046Z,6.65
2022-10-19T14:51:24.487Z,6.85
2022-10-19T14:53:57.795Z,9.02
2022-10-19T14:56:30.367Z,4.40
2022-10-19T14:59:01.967Z,11.05
2022-10-19T15:01:29.779Z,7.65
2022-10-19T15:03:58.029Z,5.70
2022-10-19T15:06:29.457Z,5.78
2022-10-19T15:09:00.873Z,6.75
2022-10-19T15:11:31.409Z,10.30
2022-10-19T15:14:04.528Z,7.25
2022-10-19T15:16:42.317Z,5.88
2022-10-19T15:19:17.668Z,9.25
2022-10-19T15:24:27.225Z,11.75
2022-10-19T15:27:08.749Z,6.70
2022-10-19T15:29:40.178Z,4.63
2022-10-19T15:32:15.502Z,10.50
2022-10-19T15:37:19.419Z,7.25
2022-10-19T15:39:47.883Z,5.22
2022-10-19T15:42:44.135Z,7.72
2022-10-19T15:45:33.660Z,7.57
2022-10-19T15:48:29.211Z,8.27
2022-10-19T15:50:58.421Z,5.90
2022-10-19T15:53:26.478Z,11.30
2022-10-19T15:55:54.536Z,9.18
2022-10-19T15:58:22.238Z,9.02
2022-10-19T16:00:51.334Z,7.30
2022-10-19T16:03:19.263Z,8.93
2022-10-19T16:05:47.188Z,8.13
2022-10-19T16:08:15.193Z,6.88
2022-10-19T16:10:42.915Z,8.02
2022-10-19T16:13:10.604Z,10.10
2022-10-19T16:15:38.321Z,7.63
2022-10-19T16:18:07.410Z,7.35
2022-10-19T16:20:35.091Z,8.30
2022-10-19T16:23:03.109Z,8.38
2022-10-19T16:25:30.932Z,5.63
2022-10-19T16:27:58.579Z,6.13
2022-10-19T16:30:26.420Z,7.10
2022-10-19T16:32:54.118Z,7.43
2022-10-19T16:35:23.832Z,10.57
2022-10-19T16:37:51.583Z,9.88
2022-10-19T16:40:19.297Z,9.65
2022-10-19T16:42:46.982Z,7.93
2022-10-19T16:45:14.733Z,9.55
2022-10-19T16:47:42.490Z,10.95
2022-10-19T16:50:12.095Z,12.07
2022-10-19T16:52:41.340Z,7.57
2022-10-19T16:55:09.883Z,7.93
2022-10-19T16:57:37.936Z,7.60
2022-10-19T17:00:09.381Z,6.90
2022-10-19T17:02:41.839Z,8.32
2022-10-19T17:05:12.271Z,8.40
2022-10-19T17:07:41.424Z,8.35
2022-10-19T17:10:09.836Z,7.13
2022-10-19T17:12:40.650Z,11.55
2022-10-19T17:15:40.893Z,7.13
2022-10-19T17:17:57.946Z,7.88
2022-10-19T17:20:25.876Z,9.45
2022-10-19T17:22:55.143Z,10.98
2022-10-19T17:25:22.857Z,11.77
2022-10-19T17:27:51.251Z,8.35
2022-10-19T17:30:19.874Z,9.32
2022-10-19T17:32:47.917Z,8.65
2022-10-19T17:35:15.835Z,9.52
2022-10-19T17:37:43.552Z,8.40
2022-10-19T17:40:13.766Z,11.98
2022-10-19T17:42:41.685Z,8.85
2022-10-19T17:45:10.361Z,10.50
2022-10-19T17:47:38.410Z,7.97
2022-10-19T17:50:07.144Z,7.03
2022-10-19T17:52:34.951Z,8.05
2022-10-19T17:55:18.240Z,12.52
2022-10-19T17:57:47.414Z,10.20
2022-10-19T18:00:16.085Z,8.68
2022-10-19T18:02:45.460Z,15.60
2022-10-19T18:05:13.622Z,11.32
2022-10-19T18:07:44.071Z,10.15
2022-10-19T18:10:11.786Z,19.35
2022-10-19T18:12:39.652Z,12.82
2022-10-19T18:15:09.727Z,10.00
2022-10-19T18:17:37.830Z,11.27
2022-10-19T18:20:06.771Z,10.35
2022-10-19T18:22:34.631Z,11.70
2022-10-19T18:25:02.550Z,9.45
2022-10-19T18:27:30.340Z,9.68
2022-10-19T18:29:58.106Z,9.68
2022-10-19T18:32:27.206Z,11.38
2022-10-19T18:34:54.923Z,9.75
2022-10-19T18:37:22.702Z,16.95
2022-10-19T18:39:50.407Z,11.70
2022-10-19T18:42:18.787Z,9.70
2022-10-19T18:44:47.293Z,11.35
2022-10-19T18:47:15.071Z,9.18
2022-10-19T18:49:44.352Z,11.48
2022-10-19T18:52:12.006Z,6.78
2022-10-19T18:54:39.950Z,10.55
2022-10-19T18:57:07.720Z,9.25
2022-10-19T18:59:35.420Z,12.63
2022-10-19T19:02:03.135Z,10.73
2022-10-19T19:04:30.962Z,7.97
2022-10-19T19:07:00.099Z,10.68
2022-10-19T19:09:27.836Z,8.60
2022-10-19T19:11:58.085Z,10.63
2022-10-19T19:14:26.465Z,11.90
2022-10-19T19:16:54.320Z,9.23
2022-10-19T19:19:24.325Z,6.22
2022-10-19T19:21:52.549Z,7.82
2022-10-19T19:24:23.174Z,8.60
2022-10-19T19:26:53.386Z,13.52
2022-10-19T19:29:22.157Z,8.90
2022-10-19T19:31:50.027Z,10.45
2022-10-19T19:34:18.285Z,14.77
2022-10-19T19:36:48.509Z,9.55
2022-10-19T19:39:18.614Z,9.18
2022-10-19T19:41:48.224Z,11.00
2022-10-19T19:44:15.995Z,9.27
2022-10-19T19:46:43.959Z,8.63
2022-10-19T19:49:12.031Z,9.48
2022-10-19T19:51:39.852Z,6.93
2022-10-19T19:54:07.527Z,7.55
2022-10-19T19:56:37.127Z,6.47
2022-10-19T19:59:06.240Z,8.25
2022-10-19T20:01:34.071Z,8.85
2022-10-19T20:06:36.666Z,11.10
2022-10-19T20:09:05.617Z,7.60
2022-10-19T20:11:36.016Z,9.38
2022-10-19T20:14:06.367Z,10.93
2022-10-19T20:16:34.367Z,7.53
2022-10-19T20:19:07.461Z,9.18
2022-10-19T20:21:35.433Z,13.85
2022-10-19T20:24:04.197Z,10.00
2022-10-19T20:26:32.481Z,11.32
2022-10-19T20:29:02.031Z,7.93
2022-10-19T20:31:33.235Z,7.68
2022-10-19T20:34:01.086Z,6.72
2022-10-19T20:36:28.854Z,14.60
2022-10-19T20:38:58.204Z,10.00
2022-10-19T20:41:27.398Z,7.45
2022-10-19T20:43:55.798Z,8.77
2022-10-19T20:46:26.108Z,8.90
2022-10-19T20:48:56.357Z,8.52
2022-10-19T20:51:30.557Z,9.98
2022-10-19T20:54:01.647Z,8.55
2022-10-19T20:56:32.868Z,8.40
2022-10-19T21:01:33.671Z,8.52
2022-10-19T21:04:04.792Z,9.90
2022-10-19T21:06:34.884Z,7.60
2022-10-19T21:09:03.010Z,9.93
2022-10-19T21:11:32.363Z,10.45
2022-10-19T21:14:01.907Z,10.32
2022-10-19T21:16:33.483Z,9.55
2022-10-19T21:19:04.239Z,9.85
2022-10-19T21:21:34.341Z,10.07
2022-10-19T21:24:04.901Z,8.98
2022-10-19T21:26:34.161Z,7.93
2022-10-19T21:29:02.516Z,12.30
2022-10-19T21:31:30.823Z,10.57
2022-10-19T21:33:58.581Z,8.15
2022-10-19T21:36:27.827Z,12.43
2022-10-19T21:38:55.513Z,11.43
2022-10-19T21:41:26.218Z,9.82
2022-10-19T21:43:54.539Z,8.70
2022-10-19T21:46:24.039Z,7.35
2022-10-19T21:48:52.490Z,12.20
2022-10-19T21:51:31.744Z,8.00
2022-10-19T21:54:00.378Z,8.25
2022-10-19T21:56:28.867Z,8.55
2022-10-19T21:58:56.641Z,15.32
2022-10-19T22:01:26.659Z,11.93
2022-10-19T22:03:58.673Z,7.70
2022-10-19T22:06:29.516Z,10.88
2022-10-19T22:08:58.260Z,10.02
2022-10-19T22:11:26.999Z,13.10
2022-10-19T22:13:56.425Z,10.38
2022-10-19T22:16:24.813Z,8.98
2022-10-19T22:18:53.418Z,9.52
2022-10-19T22:21:23.230Z,9.18
2022-10-19T22:23:54.442Z,7.70
2022-10-19T22:26:24.679Z,9.18
2022-10-19T22:28:53.453Z,10.27
2022-10-19T22:31:21.510Z,12.25
2022-10-19T22:33:49.449Z,9.65
2022-10-19T22:36:17.639Z,10.43
2022-10-19T22:38:45.704Z,10.23
2022-10-19T22:41:14.876Z,9.93
2022-10-19T22:43:42.754Z,11.73
2022-10-19T22:46:10.623Z,11.43
2022-10-19T22:48:38.637Z,14.88
2022-10-19T22:51:06.470Z,7.88
2022-10-19T22:53:34.234Z,9.90
2022-10-19T22:56:02.535Z,11.95
2022-10-19T22:58:31.775Z,12.70
2022-10-19T23:01:04.710Z,13.90
2022-10-19T23:03:32.630Z,10.43
2022-10-19T23:06:00.633Z,9.50
2022-10-19T23:08:28.617Z,9.30
2022-10-19T23:10:56.653Z,10.68
2022-10-19T23:13:24.955Z,13.52
2022-10-19T23:15:54.191Z,11.13
2022-10-19T23:18:22.529Z,12.50
2022-10-19T23:20:55.201Z,11.98
2022-10-19T23:23:23.065Z,13.40
2022-10-19T23:26:01.745Z,14.98
2022-10-19T23:28:30.253Z,11.43
2022-10-19T23:31:00.474Z,11.85
2022-10-19T23:33:28.357Z,11.25
2022-10-19T23:35:56.124Z,12.40
2022-10-19T23:38:23.981Z,12.75
2022-10-19T23:40:51.779Z,11.02
2022-10-19T23:43:19.571Z,10.25
2022-10-19T23:45:47.445Z,13.45
2022-10-19T23:48:16.666Z,9.25
2022-10-19T23:50:44.543Z,10.25
2022-10-19T23:53:12.411Z,13.73
2022-10-19T23:55:40.258Z,10.48
2022-10-19T23:58:08.242Z,11.15
